sensor_id;sensor_type;location;lat;lon;timestamp;temperature;humidity
4856;DHT22;2442;48.676;7.986;2022-12-08T00:00:48;0.80;99.90
4856;DHT22;2442;48.676;7.986;2022-12-08T00:03:15;0.70;99.90
4856;DHT22;2442;48.676;7.986;2022-12-08T00:05:45;0.80;99.90
4856;DHT22;2442;48.676;7.986;2022-12-08T00:08:32;1.00;99.90
4856;DHT22;2442;48.676;7.986;2022-12-08T00:11:17;1.00;99.90
4856;DHT22;2442;48.676;7.986;2022-12-08T00:13:44;1.00;99.90
4856;DHT22;2442;48.676;7.986;2022-12-08T00:16:11;1.10;99.90
4856;DHT22;2442;48.676;7.986;2022-12-08T00:18:38;1.20;99.90
4856;DHT22;2442;48.676;7.986;2022-12-08T00:21:05;1.30;99.90
4856;DHT22;2442;48.676;7.986;2022-12-08T00:23:33;1.20;99.90
4856;DHT22;2442;48.676;7.986;2022-12-08T00:26:01;1.10;99.90
4856;DHT22;2442;48.676;7.986;2022-12-08T00:28:28;1.10;99.90
4856;DHT22;2442;48.676;7.986;2022-12-08T00:30:55;1.20;99.90
4856;DHT22;2442;48.676;7.986;2022-12-08T00:33:22;1.00;99.90
4856;DHT22;2442;48.676;7.986;2022-12-08T00:35:49;1.10;99.90
4856;DHT22;2442;48.676;7.986;2022-12-08T00:38:16;1.10;99.90
4856;DHT22;2442;48.676;7.986;2022-12-08T00:40:45;1.00;99.90
4856;DHT22;2442;48.676;7.986;2022-12-08T00:43:12;1.00;99.90
4856;DHT22;2442;48.676;7.986;2022-12-08T00:45:39;1.00;99.90
4856;DHT22;2442;48.676;7.986;2022-12-08T00:48:06;1.00;99.90
4856;DHT22;2442;48.676;7.986;2022-12-08T00:50:33;1.00;99.90
4856;DHT22;2442;48.676;7.986;2022-12-08T00:53:00;0.90;99.90
4856;DHT22;2442;48.676;7.986;2022-12-08T00:55:26;0.90;99.90
4856;DHT22;2442;48.676;7.986;2022-12-08T00:57:55;0.90;99.90
4856;DHT22;2442;48.676;7.986;2022-12-08T01:00:21;1.00;99.90
4856;DHT22;2442;48.676;7.986;2022-12-08T01:02:48;1.00;99.90
4856;DHT22;2442;48.676;7.986;2022-12-08T01:05:15;1.00;99.90
4856;DHT22;2442;48.676;7.986;2022-12-08T01:07:42;0.70;99.90
4856;DHT22;2442;48.676;7.986;2022-12-08T01:10:09;0.50;99.90
4856;DHT22;2442;48.676;7.986;2022-12-08T01:12:36;0.60;99.90
4856;DHT22;2442;48.676;7.986;2022-12-08T01:15:05;0.50;99.90
4856;DHT22;2442;48.676;7.986;2022-12-08T01:17:32;0.50;99.90
4856;DHT22;2442;48.676;7.986;2022-12-08T01:19:59;0.40;99.90
4856;DHT22;2442;48.676;7.986;2022-12-08T01:22:26;0.40;99.90
4856;DHT22;2442;48.676;7.986;2022-12-08T01:24:53;0.30;99.90
4856;DHT22;2442;48.676;7.986;2022-12-08T01:27:20;0.40;99.90
4856;DHT22;2442;48.676;7.986;2022-12-08T01:29:47;0.30;99.90
4856;DHT22;2442;48.676;7.986;2022-12-08T01:32:15;0.30;99.90
4856;DHT22;2442;48.676;7.986;2022-12-08T01:34:42;0.20;99.90
4856;DHT22;2442;48.676;7.986;2022-12-08T01:37:09;0.10;99.90
4856;DHT22;2442;48.676;7.986;2022-12-08T01:39:37;0.10;99.90
4856;DHT22;2442;48.676;7.986;2022-12-08T01:42:05;0.00;99.90
4856;DHT22;2442;48.676;7.986;2022-12-08T01:44:52;0.00;99.90
4856;DHT22;2442;48.676;7.986;2022-12-08T01:47:22;0.00;99.90
4856;DHT22;2442;48.676;7.986;2022-12-08T01:49:49;0.00;99.90
4856;DHT22;2442;48.676;7.986;2022-12-08T01:52:20;-0.10;99.90
4856;DHT22;2442;48.676;7.986;2022-12-08T01:54:52;-0.10;99.90
4856;DHT22;2442;48.676;7.986;2022-12-08T01:57:24;-0.10;99.90
4856;DHT22;2442;48.676;7.986;2022-12-08T01:59:55;-0.20;99.90
4856;DHT22;2442;48.676;7.986;2022-12-08T02:02:31;-0.20;99.90
4856;DHT22;2442;48.676;7.986;2022-12-08T02:04:59;-0.30;99.90
4856;DHT22;2442;48.676;7.986;2022-12-08T02:07:26;-0.40;99.90
4856;DHT22;2442;48.676;7.986;2022-12-08T02:09:53;-0.50;99.90
4856;DHT22;2442;48.676;7.986;2022-12-08T02:12:21;-0.50;99.90
4856;DHT22;2442;48.676;7.986;2022-12-08T02:14:48;-0.60;99.90
4856;DHT22;2442;48.676;7.986;2022-12-08T02:17:29;-0.70;99.90
4856;DHT22;2442;48.676;7.986;2022-12-08T02:20:15;-0.70;99.90
4856;DHT22;2442;48.676;7.986;2022-12-08T02:22:53;-0.80;99.90
4856;DHT22;2442;48.676;7.986;2022-12-08T02:25:27;-0.90;99.90
4856;DHT22;2442;48.676;7.986;2022-12-08T02:28:06;-0.90;99.90
4856;DHT22;2442;48.676;7.986;2022-12-08T02:30:46;-0.90;99.90
4856;DHT22;2442;48.676;7.986;2022-12-08T02:33:52;-0.80;99.90
4856;DHT22;2442;48.676;7.986;2022-12-08T02:36:26;-0.90;99.90
4856;DHT22;2442;48.676;7.986;2022-12-08T02:39:01;-0.90;99.90
4856;DHT22;2442;48.676;7.986;2022-12-08T02:41:35;-0.80;99.90
4856;DHT22;2442;48.676;7.986;2022-12-08T02:44:10;-0.80;99.90
4856;DHT22;2442;48.676;7.986;2022-12-08T02:46:42;-1.00;99.90
4856;DHT22;2442;48.676;7.986;2022-12-08T02:49:11;-1.20;99.90
4856;DHT22;2442;48.676;7.986;2022-12-08T02:51:39;-1.20;99.90
4856;DHT22;2442;48.676;7.986;2022-12-08T02:54:06;-1.20;99.90
4856;DHT22;2442;48.676;7.986;2022-12-08T02:56:48;-1.20;99.90
4856;DHT22;2442;48.676;7.986;2022-12-08T02:59:24;-1.20;99.90
4856;DHT22;2442;48.676;7.986;2022-12-08T03:02:12;-1.20;99.90
4856;DHT22;2442;48.676;7.986;2022-12-08T03:04:48;-1.20;99.90
4856;DHT22;2442;48.676;7.986;2022-12-08T03:07:22;-1.20;99.90
4856;DHT22;2442;48.676;7.986;2022-12-08T03:09:54;-1.30;99.90
4856;DHT22;2442;48.676;7.986;2022-12-08T03:12:27;-1.30;99.90
4856;DHT22;2442;48.676;7.986;2022-12-08T03:14:59;-1.30;99.90
4856;DHT22;2442;48.676;7.986;2022-12-08T03:17:28;-1.30;99.90
4856;DHT22;2442;48.676;7.986;2022-12-08T03:20:02;-1.20;99.90
4856;DHT22;2442;48.676;7.986;2022-12-08T03:22:30;-1.20;99.90
4856;DHT22;2442;48.676;7.986;2022-12-08T03:24:58;-1.10;99.90
4856;DHT22;2442;48.676;7.986;2022-12-08T03:27:27;-1.00;99.90
4856;DHT22;2442;48.676;7.986;2022-12-08T03:29:56;-0.90;99.90
4856;DHT22;2442;48.676;7.986;2022-12-08T03:32:28;-0.80;99.90
4856;DHT22;2442;48.676;7.986;2022-12-08T03:34:59;-0.70;99.90
4856;DHT22;2442;48.676;7.986;2022-12-08T03:37:27;-0.70;99.90
4856;DHT22;2442;48.676;7.986;2022-12-08T03:39:54;-0.60;99.90
4856;DHT22;2442;48.676;7.986;2022-12-08T03:42:21;-0.60;99.90
4856;DHT22;2442;48.676;7.986;2022-12-08T03:44:48;-0.60;99.90
4856;DHT22;2442;48.676;7.986;2022-12-08T03:47:15;-0.60;99.90
4856;DHT22;2442;48.676;7.986;2022-12-08T03:49:42;-0.50;99.90
4856;DHT22;2442;48.676;7.986;2022-12-08T03:52:10;-0.50;99.90
4856;DHT22;2442;48.676;7.986;2022-12-08T03:54:37;-0.50;99.90
4856;DHT22;2442;48.676;7.986;2022-12-08T03:57:03;-0.50;99.90
4856;DHT22;2442;48.676;7.986;2022-12-08T03:59:30;-0.40;99.90
4856;DHT22;2442;48.676;7.986;2022-12-08T04:01:57;-0.40;99.90
4856;DHT22;2442;48.676;7.986;2022-12-08T04:04:24;-0.30;99.90
4856;DHT22;2442;48.676;7.986;2022-12-08T04:06:51;-0.30;99.90
4856;DHT22;2442;48.676;7.986;2022-12-08T04:09:19;-0.30;99.90
4856;DHT22;2442;48.676;7.986;2022-12-08T04:11:46;-0.20;99.90
4856;DHT22;2442;48.676;7.986;2022-12-08T04:14:12;-0.10;99.90
4856;DHT22;2442;48.676;7.986;2022-12-08T04:16:39;-0.10;99.90
4856;DHT22;2442;48.676;7.986;2022-12-08T04:19:06;0.00;99.90
4856;DHT22;2442;48.676;7.986;2022-12-08T04:21:33;0.00;99.90
4856;DHT22;2442;48.676;7.986;2022-12-08T04:24:00;0.10;99.90
4856;DHT22;2442;48.676;7.986;2022-12-08T04:26:29;0.10;99.90
4856;DHT22;2442;48.676;7.986;2022-12-08T04:28:56;0.10;99.90
4856;DHT22;2442;48.676;7.986;2022-12-08T04:31:22;0.10;99.90
4856;DHT22;2442;48.676;7.986;2022-12-08T04:33:49;0.20;99.90
4856;DHT22;2442;48.676;7.986;2022-12-08T04:36:16;0.20;99.90
4856;DHT22;2442;48.676;7.986;2022-12-08T04:38:43;0.20;99.90
4856;DHT22;2442;48.676;7.986;2022-12-08T04:41:10;0.20;99.90
4856;DHT22;2442;48.676;7.986;2022-12-08T04:43:38;0.20;99.90
4856;DHT22;2442;48.676;7.986;2022-12-08T04:46:06;0.20;99.90
4856;DHT22;2442;48.676;7.986;2022-12-08T04:48:33;0.20;99.90
4856;DHT22;2442;48.676;7.986;2022-12-08T04:51:02;0.20;99.90
4856;DHT22;2442;48.676;7.986;2022-12-08T04:53:29;0.20;99.90
4856;DHT22;2442;48.676;7.986;2022-12-08T04:55:55;0.30;99.90
4856;DHT22;2442;48.676;7.986;2022-12-08T04:58:22;0.30;99.90
4856;DHT22;2442;48.676;7.986;2022-12-08T05:00:50;0.30;99.90
4856;DHT22;2442;48.676;7.986;2022-12-08T05:03:17;0.30;99.90
4856;DHT22;2442;48.676;7.986;2022-12-08T05:05:45;0.30;99.90
4856;DHT22;2442;48.676;7.986;2022-12-08T05:08:12;0.30;99.90
4856;DHT22;2442;48.676;7.986;2022-12-08T05:10:39;0.30;99.90
4856;DHT22;2442;48.676;7.986;2022-12-08T05:13:06;0.40;99.90
4856;DHT22;2442;48.676;7.986;2022-12-08T05:15:33;0.30;99.90
4856;DHT22;2442;48.676;7.986;2022-12-08T05:18:01;0.40;99.90
4856;DHT22;2442;48.676;7.986;2022-12-08T05:20:30;0.40;99.90
4856;DHT22;2442;48.676;7.986;2022-12-08T05:22:57;0.40;99.90
4856;DHT22;2442;48.676;7.986;2022-12-08T05:25:24;0.50;99.90
4856;DHT22;2442;48.676;7.986;2022-12-08T05:27:51;0.50;99.90
4856;DHT22;2442;48.676;7.986;2022-12-08T05:30:17;0.60;99.90
4856;DHT22;2442;48.676;7.986;2022-12-08T05:32:44;0.60;99.90
4856;DHT22;2442;48.676;7.986;2022-12-08T05:35:12;0.60;99.90
4856;DHT22;2442;48.676;7.986;2022-12-08T05:37:39;0.60;99.90
4856;DHT22;2442;48.676;7.986;2022-12-08T05:40:07;0.70;99.90
4856;DHT22;2442;48.676;7.986;2022-12-08T05:42:34;0.70;99.90
4856;DHT22;2442;48.676;7.986;2022-12-08T05:45:01;0.60;99.90
4856;DHT22;2442;48.676;7.986;2022-12-08T05:47:28;0.60;99.90
4856;DHT22;2442;48.676;7.986;2022-12-08T05:49:55;0.60;99.90
4856;DHT22;2442;48.676;7.986;2022-12-08T05:52:23;0.60;99.90
4856;DHT22;2442;48.676;7.986;2022-12-08T05:54:50;0.60;99.90
4856;DHT22;2442;48.676;7.986;2022-12-08T05:57:17;0.60;99.90
4856;DHT22;2442;48.676;7.986;2022-12-08T05:59:44;0.70;99.90
4856;DHT22;2442;48.676;7.986;2022-12-08T06:02:11;0.60;99.90
4856;DHT22;2442;48.676;7.986;2022-12-08T06:04:38;0.60;99.90
4856;DHT22;2442;48.676;7.986;2022-12-08T06:07:07;0.60;99.90
4856;DHT22;2442;48.676;7.986;2022-12-08T06:09:35;0.60;99.90
4856;DHT22;2442;48.676;7.986;2022-12-08T06:12:03;0.60;99.90
4856;DHT22;2442;48.676;7.986;2022-12-08T06:14:29;0.50;99.90
4856;DHT22;2442;48.676;7.986;2022-12-08T06:16:56;0.50;99.90
4856;DHT22;2442;48.676;7.986;2022-12-08T06:19:23;0.50;99.90
4856;DHT22;2442;48.676;7.986;2022-12-08T06:21:50;0.40;99.90
4856;DHT22;2442;48.676;7.986;2022-12-08T06:24:17;0.30;99.90
4856;DHT22;2442;48.676;7.986;2022-12-08T06:26:45;0.30;99.90
4856;DHT22;2442;48.676;7.986;2022-12-08T06:29:12;0.30;99.90
4856;DHT22;2442;48.676;7.986;2022-12-08T06:31:39;0.30;99.90
4856;DHT22;2442;48.676;7.986;2022-12-08T06:34:06;0.30;99.90
4856;DHT22;2442;48.676;7.986;2022-12-08T06:36:34;0.30;99.90
4856;DHT22;2442;48.676;7.986;2022-12-08T06:39:01;0.30;99.90
4856;DHT22;2442;48.676;7.986;2022-12-08T06:41:28;0.30;99.90
4856;DHT22;2442;48.676;7.986;2022-12-08T06:43:57;0.40;99.90
4856;DHT22;2442;48.676;7.986;2022-12-08T06:46:24;0.40;99.90
4856;DHT22;2442;48.676;7.986;2022-12-08T06:48:50;0.40;99.90
4856;DHT22;2442;48.676;7.986;2022-12-08T06:51:19;0.40;99.90
4856;DHT22;2442;48.676;7.986;2022-12-08T06:53:47;0.50;99.90
4856;DHT22;2442;48.676;7.986;2022-12-08T06:56:14;0.60;99.90
4856;DHT22;2442;48.676;7.986;2022-12-08T06:58:44;0.60;99.90
4856;DHT22;2442;48.676;7.986;2022-12-08T07:01:13;0.70;99.90
4856;DHT22;2442;48.676;7.986;2022-12-08T07:03:40;0.70;99.90
4856;DHT22;2442;48.676;7.986;2022-12-08T07:06:13;0.80;99.90
4856;DHT22;2442;48.676;7.986;2022-12-08T07:08:41;0.80;99.90
4856;DHT22;2442;48.676;7.986;2022-12-08T07:11:08;0.70;99.90
4856;DHT22;2442;48.676;7.986;2022-12-08T07:13:35;0.70;99.90
4856;DHT22;2442;48.676;7.986;2022-12-08T07:16:07;0.60;99.90
4856;DHT22;2442;48.676;7.986;2022-12-08T07:18:36;0.60;99.90
4856;DHT22;2442;48.676;7.986;2022-12-08T07:21:04;0.60;99.90
4856;DHT22;2442;48.676;7.986;2022-12-08T07:23:31;0.60;99.90
4856;DHT22;2442;48.676;7.986;2022-12-08T07:25:59;0.60;99.90
4856;DHT22;2442;48.676;7.986;2022-12-08T07:28:29;0.70;99.90
4856;DHT22;2442;48.676;7.986;2022-12-08T07:30:55;0.70;99.90
4856;DHT22;2442;48.676;7.986;2022-12-08T07:33:22;0.70;99.90
4856;DHT22;2442;48.676;7.986;2022-12-08T07:35:54;0.70;99.90
4856;DHT22;2442;48.676;7.986;2022-12-08T07:38:21;0.70;99.90
4856;DHT22;2442;48.676;7.986;2022-12-08T07:40:48;0.70;99.90
4856;DHT22;2442;48.676;7.986;2022-12-08T07:43:15;0.70;99.90
4856;DHT22;2442;48.676;7.986;2022-12-08T07:45:42;0.70;99.90
4856;DHT22;2442;48.676;7.986;2022-12-08T07:48:09;0.80;99.90
4856;DHT22;2442;48.676;7.986;2022-12-08T07:50:36;0.80;99.90
4856;DHT22;2442;48.676;7.986;2022-12-08T07:53:06;0.80;99.90
4856;DHT22;2442;48.676;7.986;2022-12-08T07:55:33;0.80;99.90
4856;DHT22;2442;48.676;7.986;2022-12-08T07:58:00;0.80;99.90
4856;DHT22;2442;48.676;7.986;2022-12-08T08:00:27;0.90;99.90
4856;DHT22;2442;48.676;7.986;2022-12-08T08:02:54;0.90;99.90
4856;DHT22;2442;48.676;7.986;2022-12-08T08:05:21;0.90;99.90
4856;DHT22;2442;48.676;7.986;2022-12-08T08:07:48;0.90;99.90
4856;DHT22;2442;48.676;7.986;2022-12-08T08:10:16;0.90;99.90
4856;DHT22;2442;48.676;7.986;2022-12-08T08:12:43;0.90;99.90
4856;DHT22;2442;48.676;7.986;2022-12-08T08:15:10;0.90;99.90
4856;DHT22;2442;48.676;7.986;2022-12-08T08:17:38;0.90;99.90
4856;DHT22;2442;48.676;7.986;2022-12-08T08:20:06;0.90;99.90
4856;DHT22;2442;48.676;7.986;2022-12-08T08:22:34;0.90;99.90
4856;DHT22;2442;48.676;7.986;2022-12-08T08:25:01;0.80;99.90
4856;DHT22;2442;48.676;7.986;2022-12-08T08:27:29;0.70;99.90
4856;DHT22;2442;48.676;7.986;2022-12-08T08:29:56;0.70;99.90
4856;DHT22;2442;48.676;7.986;2022-12-08T08:32:23;0.70;99.90
4856;DHT22;2442;48.676;7.986;2022-12-08T08:34:50;0.90;99.90
4856;DHT22;2442;48.676;7.986;2022-12-08T08:37:17;1.00;99.90
4856;DHT22;2442;48.676;7.986;2022-12-08T08:39:44;1.10;99.90
4856;DHT22;2442;48.676;7.986;2022-12-08T08:42:11;1.20;99.90
4856;DHT22;2442;48.676;7.986;2022-12-08T08:44:39;1.30;99.90
4856;DHT22;2442;48.676;7.986;2022-12-08T08:47:06;1.40;99.90
4856;DHT22;2442;48.676;7.986;2022-12-08T08:49:33;1.60;99.90
4856;DHT22;2442;48.676;7.986;2022-12-08T08:52:00;1.60;99.90
4856;DHT22;2442;48.676;7.986;2022-12-08T08:54:28;1.60;99.90
4856;DHT22;2442;48.676;7.986;2022-12-08T08:56:56;1.70;99.90
4856;DHT22;2442;48.676;7.986;2022-12-08T08:59:23;1.70;99.90
4856;DHT22;2442;48.676;7.986;2022-12-08T09:01:54;1.70;99.90
4856;DHT22;2442;48.676;7.986;2022-12-08T09:04:22;1.60;99.90
4856;DHT22;2442;48.676;7.986;2022-12-08T09:06:50;1.60;99.90
4856;DHT22;2442;48.676;7.986;2022-12-08T09:09:17;1.60;99.90
4856;DHT22;2442;48.676;7.986;2022-12-08T09:11:44;1.60;99.90
4856;DHT22;2442;48.676;7.986;2022-12-08T09:14:10;1.70;99.90
4856;DHT22;2442;48.676;7.986;2022-12-08T09:16:39;1.90;99.90
4856;DHT22;2442;48.676;7.986;2022-12-08T09:19:07;1.90;99.90
4856;DHT22;2442;48.676;7.986;2022-12-08T09:21:34;1.90;99.90
4856;DHT22;2442;48.676;7.986;2022-12-08T09:24:01;2.00;99.90
4856;DHT22;2442;48.676;7.986;2022-12-08T09:26:28;2.10;99.90
4856;DHT22;2442;48.676;7.986;2022-12-08T09:28:55;2.30;99.90
4856;DHT22;2442;48.676;7.986;2022-12-08T09:31:23;2.40;99.90
4856;DHT22;2442;48.676;7.986;2022-12-08T09:33:50;2.60;99.90
4856;DHT22;2442;48.676;7.986;2022-12-08T09:36:18;2.40;99.90
4856;DHT22;2442;48.676;7.986;2022-12-08T09:38:45;2.50;99.90
4856;DHT22;2442;48.676;7.986;2022-12-08T09:41:15;2.50;99.90
4856;DHT22;2442;48.676;7.986;2022-12-08T09:43:53;2.40;99.90
4856;DHT22;2442;48.676;7.986;2022-12-08T09:46:25;2.40;99.90
4856;DHT22;2442;48.676;7.986;2022-12-08T09:48:56;2.50;99.90
4856;DHT22;2442;48.676;7.986;2022-12-08T09:51:26;2.50;99.90
4856;DHT22;2442;48.676;7.986;2022-12-08T09:53:57;2.40;99.90
4856;DHT22;2442;48.676;7.986;2022-12-08T09:56:27;2.40;99.90
4856;DHT22;2442;48.676;7.986;2022-12-08T09:59:00;2.60;99.90
4856;DHT22;2442;48.676;7.986;2022-12-08T10:01:30;2.50;99.90
4856;DHT22;2442;48.676;7.986;2022-12-08T10:03:58;2.60;99.90
4856;DHT22;2442;48.676;7.986;2022-12-08T10:06:31;2.60;99.90
4856;DHT22;2442;48.676;7.986;2022-12-08T10:09:07;2.80;99.90
4856;DHT22;2442;48.676;7.986;2022-12-08T10:11:42;2.80;99.90
4856;DHT22;2442;48.676;7.986;2022-12-08T10:14:17;2.70;99.90
4856;DHT22;2442;48.676;7.986;2022-12-08T10:16:48;2.80;99.90
4856;DHT22;2442;48.676;7.986;2022-12-08T10:19:18;2.80;99.90
4856;DHT22;2442;48.676;7.986;2022-12-08T10:21:47;2.90;99.90
4856;DHT22;2442;48.676;7.986;2022-12-08T10:24:19;2.90;99.90
4856;DHT22;2442;48.676;7.986;2022-12-08T10:26:48;2.70;99.90
4856;DHT22;2442;48.676;7.986;2022-12-08T10:29:15;2.80;99.90
4856;DHT22;2442;48.676;7.986;2022-12-08T10:31:42;2.80;99.90
4856;DHT22;2442;48.676;7.986;2022-12-08T10:34:14;2.90;99.90
4856;DHT22;2442;48.676;7.986;2022-12-08T10:36:51;3.00;99.90
4856;DHT22;2442;48.676;7.986;2022-12-08T10:39:33;2.90;99.90
4856;DHT22;2442;48.676;7.986;2022-12-08T10:42:12;2.80;99.90
4856;DHT22;2442;48.676;7.986;2022-12-08T10:44:52;2.90;99.90
4856;DHT22;2442;48.676;7.986;2022-12-08T10:47:21;3.00;99.90
4856;DHT22;2442;48.676;7.986;2022-12-08T10:50:06;3.00;99.90
4856;DHT22;2442;48.676;7.986;2022-12-08T10:52:39;3.00;99.90
4856;DHT22;2442;48.676;7.986;2022-12-08T10:55:13;3.00;99.90
4856;DHT22;2442;48.676;7.986;2022-12-08T10:57:40;3.10;99.90
4856;DHT22;2442;48.676;7.986;2022-12-08T11:00:11;3.10;99.90
4856;DHT22;2442;48.676;7.986;2022-12-08T11:02:52;3.10;99.90
4856;DHT22;2442;48.676;7.986;2022-12-08T11:05:22;3.10;99.90
4856;DHT22;2442;48.676;7.986;2022-12-08T11:07:52;3.10;99.90
4856;DHT22;2442;48.676;7.986;2022-12-08T11:10:30;3.10;99.90
4856;DHT22;2442;48.676;7.986;2022-12-08T11:13:00;3.10;99.90
4856;DHT22;2442;48.676;7.986;2022-12-08T11:15:32;3.30;99.90
4856;DHT22;2442;48.676;7.986;2022-12-08T11:18:06;3.30;99.90
4856;DHT22;2442;48.676;7.986;2022-12-08T11:20:38;3.20;99.90
4856;DHT22;2442;48.676;7.986;2022-12-08T11:23:19;3.20;99.90
4856;DHT22;2442;48.676;7.986;2022-12-08T11:25:47;3.20;99.90
4856;DHT22;2442;48.676;7.986;2022-12-08T11:28:16;3.20;99.90
4856;DHT22;2442;48.676;7.986;2022-12-08T11:30:48;3.30;99.90
4856;DHT22;2442;48.676;7.986;2022-12-08T11:33:18;3.20;99.90
4856;DHT22;2442;48.676;7.986;2022-12-08T11:35:49;3.20;99.90
4856;DHT22;2442;48.676;7.986;2022-12-08T11:38:20;3.20;99.90
4856;DHT22;2442;48.676;7.986;2022-12-08T11:40:49;3.20;99.90
4856;DHT22;2442;48.676;7.986;2022-12-08T11:43:21;3.20;99.90
4856;DHT22;2442;48.676;7.986;2022-12-08T11:45:56;3.30;99.90
4856;DHT22;2442;48.676;7.986;2022-12-08T11:48:28;3.30;99.90
4856;DHT22;2442;48.676;7.986;2022-12-08T11:50:58;3.20;99.90
4856;DHT22;2442;48.676;7.986;2022-12-08T11:53:32;3.20;99.90
4856;DHT22;2442;48.676;7.986;2022-12-08T11:56:06;3.20;99.90
4856;DHT22;2442;48.676;7.986;2022-12-08T11:58:38;3.20;99.90
4856;DHT22;2442;48.676;7.986;2022-12-08T12:01:14;3.20;99.90
4856;DHT22;2442;48.676;7.986;2022-12-08T12:03:44;3.20;99.90
4856;DHT22;2442;48.676;7.986;2022-12-08T12:06:28;3.20;99.90
4856;DHT22;2442;48.676;7.986;2022-12-08T12:09:06;3.20;99.90
4856;DHT22;2442;48.676;7.986;2022-12-08T12:11:40;3.20;99.90
4856;DHT22;2442;48.676;7.986;2022-12-08T12:14:44;3.20;99.90
4856;DHT22;2442;48.676;7.986;2022-12-08T12:17:28;3.20;99.90
4856;DHT22;2442;48.676;7.986;2022-12-08T12:20:02;3.20;99.90
4856;DHT22;2442;48.676;7.986;2022-12-08T12:22:33;3.20;99.90
4856;DHT22;2442;48.676;7.986;2022-12-08T12:25:02;3.20;99.90
4856;DHT22;2442;48.676;7.986;2022-12-08T12:27:35;3.20;99.90
4856;DHT22;2442;48.676;7.986;2022-12-08T12:30:06;3.30;99.90
4856;DHT22;2442;48.676;7.986;2022-12-08T12:32:43;3.20;99.90
4856;DHT22;2442;48.676;7.986;2022-12-08T12:35:15;3.20;99.90
4856;DHT22;2442;48.676;7.986;2022-12-08T12:37:45;3.30;99.90
4856;DHT22;2442;48.676;7.986;2022-12-08T12:40:19;3.30;99.90
4856;DHT22;2442;48.676;7.986;2022-12-08T12:42:47;3.20;99.90
4856;DHT22;2442;48.676;7.986;2022-12-08T12:45:36;3.30;99.90
4856;DHT22;2442;48.676;7.986;2022-12-08T12:48:23;3.30;99.90
4856;DHT22;2442;48.676;7.986;2022-12-08T12:50:50;3.20;99.90
4856;DHT22;2442;48.676;7.986;2022-12-08T12:53:48;3.20;99.90
4856;DHT22;2442;48.676;7.986;2022-12-08T12:56:50;3.20;99.90
4856;DHT22;2442;48.676;7.986;2022-12-08T12:59:41;3.30;99.90
4856;DHT22;2442;48.676;7.986;2022-12-08T13:02:19;3.30;99.90
4856;DHT22;2442;48.676;7.986;2022-12-08T13:04:54;3.30;99.90
4856;DHT22;2442;48.676;7.986;2022-12-08T13:07:24;3.30;99.90
4856;DHT22;2442;48.676;7.986;2022-12-08T13:09:56;3.30;99.90
4856;DHT22;2442;48.676;7.986;2022-12-08T13:12:24;3.30;99.90
4856;DHT22;2442;48.676;7.986;2022-12-08T13:14:57;3.30;99.90
4856;DHT22;2442;48.676;7.986;2022-12-08T13:17:29;3.40;99.90
4856;DHT22;2442;48.676;7.986;2022-12-08T13:19:59;3.40;99.90
4856;DHT22;2442;48.676;7.986;2022-12-08T13:22:47;3.40;99.90
4856;DHT22;2442;48.676;7.986;2022-12-08T13:25:46;3.40;99.90
4856;DHT22;2442;48.676;7.986;2022-12-08T13:28:19;3.40;99.90
4856;DHT22;2442;48.676;7.986;2022-12-08T13:30:47;3.50;99.90
4856;DHT22;2442;48.676;7.986;2022-12-08T13:33:20;3.40;99.90
4856;DHT22;2442;48.676;7.986;2022-12-08T13:35:52;3.50;99.90
4856;DHT22;2442;48.676;7.986;2022-12-08T13:38:21;3.50;99.90
4856;DHT22;2442;48.676;7.986;2022-12-08T13:40:52;3.50;99.90
4856;DHT22;2442;48.676;7.986;2022-12-08T13:43:29;3.50;99.90
4856;DHT22;2442;48.676;7.986;2022-12-08T13:46:00;3.50;99.90
4856;DHT22;2442;48.676;7.986;2022-12-08T13:48:34;3.50;99.90
4856;DHT22;2442;48.676;7.986;2022-12-08T13:51:08;3.50;99.90
4856;DHT22;2442;48.676;7.986;2022-12-08T13:53:39;3.50;99.90
4856;DHT22;2442;48.676;7.986;2022-12-08T13:56:09;3.50;99.90
4856;DHT22;2442;48.676;7.986;2022-12-08T13:58:38;3.50;99.90
4856;DHT22;2442;48.676;7.986;2022-12-08T14:01:09;3.50;99.90
4856;DHT22;2442;48.676;7.986;2022-12-08T14:03:48;3.60;99.90
4856;DHT22;2442;48.676;7.986;2022-12-08T14:06:16;3.60;99.90
4856;DHT22;2442;48.676;7.986;2022-12-08T14:08:46;3.60;99.90
4856;DHT22;2442;48.676;7.986;2022-12-08T14:11:22;3.60;99.90
4856;DHT22;2442;48.676;7.986;2022-12-08T14:13:59;3.50;99.90
4856;DHT22;2442;48.676;7.986;2022-12-08T14:16:27;3.50;99.90
4856;DHT22;2442;48.676;7.986;2022-12-08T14:19:03;3.50;99.90
4856;DHT22;2442;48.676;7.986;2022-12-08T14:21:30;3.50;99.90
4856;DHT22;2442;48.676;7.986;2022-12-08T14:24:00;3.50;99.90
4856;DHT22;2442;48.676;7.986;2022-12-08T14:26:31;3.50;99.90
4856;DHT22;2442;48.676;7.986;2022-12-08T14:28:59;3.50;99.90
4856;DHT22;2442;48.676;7.986;2022-12-08T14:31:27;3.60;99.90
4856;DHT22;2442;48.676;7.986;2022-12-08T14:33:55;3.60;99.90
4856;DHT22;2442;48.676;7.986;2022-12-08T14:36:22;3.60;99.90
4856;DHT22;2442;48.676;7.986;2022-12-08T14:38:50;3.60;99.90
4856;DHT22;2442;48.676;7.986;2022-12-08T14:41:24;3.70;99.90
4856;DHT22;2442;48.676;7.986;2022-12-08T14:43:57;3.80;99.90
4856;DHT22;2442;48.676;7.986;2022-12-08T14:46:26;4.00;99.90
4856;DHT22;2442;48.676;7.986;2022-12-08T14:48:52;4.10;99.90
4856;DHT22;2442;48.676;7.986;2022-12-08T14:51:27;4.00;99.90
4856;DHT22;2442;48.676;7.986;2022-12-08T14:53:56;3.80;99.90
4856;DHT22;2442;48.676;7.986;2022-12-08T14:56:28;3.70;99.90
4856;DHT22;2442;48.676;7.986;2022-12-08T14:59:06;3.60;99.90
4856;DHT22;2442;48.676;7.986;2022-12-08T15:01:37;3.50;99.90
4856;DHT22;2442;48.676;7.986;2022-12-08T15:04:08;3.50;99.90
4856;DHT22;2442;48.676;7.986;2022-12-08T15:06:49;3.50;99.90
4856;DHT22;2442;48.676;7.986;2022-12-08T15:09:28;3.50;99.90
4856;DHT22;2442;48.676;7.986;2022-12-08T15:11:59;3.60;99.90
4856;DHT22;2442;48.676;7.986;2022-12-08T15:14:29;3.80;99.90
4856;DHT22;2442;48.676;7.986;2022-12-08T15:16:57;3.80;99.90
4856;DHT22;2442;48.676;7.986;2022-12-08T15:19:27;3.80;99.90
4856;DHT22;2442;48.676;7.986;2022-12-08T15:21:57;3.60;99.90
4856;DHT22;2442;48.676;7.986;2022-12-08T15:24:26;3.50;99.90
4856;DHT22;2442;48.676;7.986;2022-12-08T15:26:55;3.50;99.90
4856;DHT22;2442;48.676;7.986;2022-12-08T15:29:24;3.40;99.90
4856;DHT22;2442;48.676;7.986;2022-12-08T15:31:54;3.40;99.90
4856;DHT22;2442;48.676;7.986;2022-12-08T15:34:21;3.40;99.90
4856;DHT22;2442;48.676;7.986;2022-12-08T15:36:49;3.50;99.90
4856;DHT22;2442;48.676;7.986;2022-12-08T15:39:27;3.50;99.90
4856;DHT22;2442;48.676;7.986;2022-12-08T15:41:56;3.60;99.90
4856;DHT22;2442;48.676;7.986;2022-12-08T15:44:23;3.60;99.90
4856;DHT22;2442;48.676;7.986;2022-12-08T15:46:50;3.50;99.90
4856;DHT22;2442;48.676;7.986;2022-12-08T15:49:19;3.50;99.90
4856;DHT22;2442;48.676;7.986;2022-12-08T15:51:47;3.50;99.90
4856;DHT22;2442;48.676;7.986;2022-12-08T15:54:15;3.50;99.90
4856;DHT22;2442;48.676;7.986;2022-12-08T15:56:45;3.50;99.90
4856;DHT22;2442;48.676;7.986;2022-12-08T15:59:16;3.40;99.90
4856;DHT22;2442;48.676;7.986;2022-12-08T16:01:43;3.40;99.90
4856;DHT22;2442;48.676;7.986;2022-12-08T16:04:12;3.40;99.90
4856;DHT22;2442;48.676;7.986;2022-12-08T16:06:40;3.30;99.90
4856;DHT22;2442;48.676;7.986;2022-12-08T16:09:16;3.30;99.90
4856;DHT22;2442;48.676;7.986;2022-12-08T16:11:47;3.20;99.90
4856;DHT22;2442;48.676;7.986;2022-12-08T16:14:31;3.20;99.90
4856;DHT22;2442;48.676;7.986;2022-12-08T16:16:58;3.10;99.90
4856;DHT22;2442;48.676;7.986;2022-12-08T16:19:25;3.00;99.90
4856;DHT22;2442;48.676;7.986;2022-12-08T16:21:52;3.00;99.90
4856;DHT22;2442;48.676;7.986;2022-12-08T16:24:19;3.00;99.90
4856;DHT22;2442;48.676;7.986;2022-12-08T16:26:47;3.00;99.90
4856;DHT22;2442;48.676;7.986;2022-12-08T16:29:18;2.90;99.90
4856;DHT22;2442;48.676;7.986;2022-12-08T16:31:45;2.90;99.90
4856;DHT22;2442;48.676;7.986;2022-12-08T16:34:12;2.90;99.90